createdAt,value
2018-10-07T00:02:13.704Z,100260.13
2018-10-07T00:04:43.410Z,100267.27
2018-10-07T00:07:13.686Z,100277.43
2018-10-07T00:09:43.809Z,100273.27
2018-10-07T00:12:13.947Z,100285.95
2018-10-07T00:14:44.367Z,100284.10
2018-10-07T00:17:14.029Z,100281.91
2018-10-07T00:19:44.248Z,100287.58
2018-10-07T00:22:14.243Z,100286.58
2018-10-07T00:24:44.038Z,100286.41
2018-10-07T00:27:13.966Z,100286.08
2018-10-07T00:29:44.082Z,100295.24
2018-10-07T00:32:15.815Z,100300.05
2018-10-07T00:34:47.368Z,100308.05
2018-10-07T00:37:16.616Z,100316.20
2018-10-07T00:39:47.310Z,100330.31
2018-10-07T00:42:16.648Z,100359.95
2018-10-07T00:44:46.776Z,100406.16
2018-10-07T00:47:16.611Z,100447.92
2018-10-07T00:49:46.867Z,100443.52
2018-10-07T00:52:16.520Z,100415.81
2018-10-07T00:54:46.393Z,100430.13
2018-10-07T00:57:16.410Z,100435.80
2018-10-07T00:59:46.275Z,100423.90
2018-10-07T01:02:15.570Z,100424.23
2018-10-07T01:04:45.098Z,100431.53
2018-10-07T01:07:14.685Z,100446.18
2018-10-07T01:09:44.503Z,100445.66
2018-10-07T01:12:13.985Z,100449.66
2018-10-07T01:14:44.034Z,100449.83
2018-10-07T01:17:13.398Z,100447.45
2018-10-07T01:19:43.186Z,100451.67
2018-10-07T01:22:12.799Z,100450.15
2018-10-07T01:24:42.362Z,100435.86
2018-10-07T01:27:12.196Z,100430.55
2018-10-07T01:29:41.574Z,100432.20
2018-10-07T01:32:11.297Z,100436.40
2018-10-07T01:34:40.954Z,100454.73
2018-10-07T01:37:11.070Z,100454.23
2018-10-07T01:39:41.256Z,100468.92
2018-10-07T01:42:10.952Z,100471.95
2018-10-07T01:44:40.468Z,100484.11
2018-10-07T01:47:10.181Z,100486.77
2018-10-07T01:49:39.850Z,100495.09
2018-10-07T01:52:11.253Z,100489.77
2018-10-07T01:54:41.161Z,100478.27
2018-10-07T01:57:10.634Z,100480.44
2018-10-07T01:59:40.314Z,100481.60
2018-10-07T02:02:09.941Z,100483.94
2018-10-07T02:04:39.171Z,100487.09
2018-10-07T02:07:09.668Z,100482.78
2018-10-07T02:09:39.426Z,100448.09
2018-10-07T02:12:09.413Z,100420.09
2018-10-07T02:14:39.142Z,100408.06
2018-10-07T02:17:08.332Z,100425.78
2018-10-07T02:19:38.031Z,100432.45
2018-10-07T02:22:07.511Z,100427.78
2018-10-07T02:24:37.231Z,100437.92
2018-10-07T02:27:06.976Z,100443.30
2018-10-07T02:29:36.639Z,100451.30
2018-10-07T02:32:06.774Z,100455.80
2018-10-07T02:34:36.890Z,100448.95
2018-10-07T02:37:06.771Z,100442.28
2018-10-07T02:39:36.313Z,100447.47
2018-10-07T02:42:06.852Z,100452.47
2018-10-07T02:44:36.578Z,100454.11
2018-10-07T02:47:06.894Z,100462.45
2018-10-07T02:49:36.991Z,100466.95
2018-10-07T02:52:07.119Z,100461.63
2018-10-07T02:54:37.900Z,100459.61
2018-10-07T02:57:07.972Z,100448.30
2018-10-07T02:59:37.271Z,100449.80
2018-10-07T03:02:07.191Z,100456.60
2018-10-07T03:04:36.907Z,100465.77
2018-10-07T03:07:07.762Z,100476.75
2018-10-07T03:09:37.136Z,100476.28
2018-10-07T03:12:06.829Z,100460.59
2018-10-07T03:14:36.994Z,100450.09
2018-10-07T03:17:06.458Z,100446.27
2018-10-07T03:19:36.219Z,100452.09
2018-10-07T03:22:05.651Z,100455.28
2018-10-07T03:24:35.165Z,100454.42
2018-10-07T03:27:05.064Z,100461.94
2018-10-07T03:29:34.658Z,100462.39
2018-10-07T03:32:04.483Z,100482.66
2018-10-07T03:34:34.020Z,100496.91
2018-10-07T03:37:03.503Z,100497.22
2018-10-07T03:39:33.031Z,100499.06
2018-10-07T03:42:02.908Z,100510.20
2018-10-07T03:44:33.463Z,100519.85
2018-10-07T03:47:02.975Z,100510.80
2018-10-07T03:49:32.817Z,100505.80
2018-10-07T03:52:03.044Z,100510.02
2018-10-07T03:54:32.929Z,100514.53
2018-10-07T03:57:02.901Z,100516.97
2018-10-07T03:59:33.004Z,100518.12
2018-10-07T04:02:03.298Z,100522.57
2018-10-07T04:04:32.793Z,100526.20
2018-10-07T04:07:02.973Z,100527.90
2018-10-07T04:09:32.810Z,100538.87
2018-10-07T04:12:03.169Z,100518.78
2018-10-07T04:14:32.899Z,100545.29
2018-10-07T04:17:02.472Z,100550.31
2018-10-07T04:19:32.053Z,100564.45
2018-10-07T04:22:01.626Z,100578.00
2018-10-07T04:24:32.980Z,100588.70
2018-10-07T04:27:03.328Z,100589.78
2018-10-07T04:29:33.125Z,100605.19
2018-10-07T04:32:02.662Z,100611.19
2018-10-07T04:34:32.855Z,100611.30
2018-10-07T04:37:02.783Z,100609.34
2018-10-07T04:39:32.014Z,100607.00
2018-10-07T04:42:01.290Z,100610.19
2018-10-07T04:44:31.468Z,100611.37
2018-10-07T04:47:00.732Z,100621.54
2018-10-07T04:49:31.059Z,100623.91
2018-10-07T04:52:00.559Z,100626.81
2018-10-07T04:54:30.356Z,100630.72
2018-10-07T04:57:00.175Z,100645.39
2018-10-07T04:59:29.838Z,100651.64
2018-10-07T05:02:00.144Z,100646.78
2018-10-07T05:04:30.225Z,100655.23
2018-10-07T05:06:59.683Z,100656.23
2018-10-07T05:09:29.123Z,100664.51
2018-10-07T05:12:01.191Z,100670.30
2018-10-07T05:14:31.053Z,100676.02
2018-10-07T05:17:01.404Z,100680.58
2018-10-07T05:19:31.581Z,100678.61
2018-10-07T05:22:01.185Z,100695.15
2018-10-07T05:24:31.650Z,100690.78
2018-10-07T05:27:01.192Z,100709.08
2018-10-07T05:29:30.904Z,100705.84
2018-10-07T05:32:00.639Z,100713.15
2018-10-07T05:34:30.122Z,100715.42
2018-10-07T05:36:59.595Z,100708.56
2018-10-07T05:39:29.276Z,100724.00
2018-10-07T05:41:58.838Z,100732.18
2018-10-07T05:44:28.448Z,100737.03
2018-10-07T05:46:58.299Z,100741.38
2018-10-07T05:49:27.812Z,100744.18
2018-10-07T05:51:57.246Z,100746.75
2018-10-07T05:54:27.167Z,100753.64
2018-10-07T05:56:57.294Z,100751.45
2018-10-07T05:59:26.867Z,100761.89
2018-10-07T06:01:58.884Z,100767.80
2018-10-07T06:05:02.478Z,100772.22
2018-10-07T06:07:32.628Z,100769.36
2018-10-07T06:10:02.483Z,100770.86
2018-10-07T06:12:32.067Z,100771.38
2018-10-07T06:15:13.052Z,100777.22
2018-10-07T06:17:43.144Z,100777.27
2018-10-07T06:20:12.953Z,100786.48
2018-10-07T06:22:42.555Z,100782.16
2018-10-07T06:25:12.519Z,100798.33
2018-10-07T06:27:41.788Z,100801.25
2018-10-07T06:30:11.269Z,100798.58
2018-10-07T06:32:41.206Z,100811.01
2018-10-07T06:35:10.713Z,100813.28
2018-10-07T06:37:41.035Z,100811.77
2018-10-07T06:40:11.032Z,100814.77
2018-10-07T06:42:41.283Z,100824.47
2018-10-07T06:45:10.935Z,100830.46
2018-10-07T06:47:40.906Z,100837.73
2018-10-07T06:50:10.826Z,100844.12
2018-10-07T06:52:40.154Z,100849.18
2018-10-07T06:55:09.667Z,100847.41
2018-10-07T06:57:39.959Z,100851.83
2018-10-07T07:00:09.911Z,100850.64
2018-10-07T07:02:39.361Z,100846.78
2018-10-07T07:05:10.131Z,100845.92
2018-10-07T07:07:39.788Z,100852.94
2018-10-07T07:10:09.954Z,100861.57
2018-10-07T07:12:39.253Z,100875.98
2018-10-07T07:15:08.805Z,100878.44
2018-10-07T07:17:40.759Z,100884.59
2018-10-07T07:20:12.548Z,100892.61
2018-10-07T07:22:42.970Z,100896.16
2018-10-07T07:25:12.601Z,100905.22
2018-10-07T07:27:42.347Z,100911.73
2018-10-07T07:30:11.706Z,100922.27
2018-10-07T07:32:41.350Z,100928.44
2018-10-07T07:35:11.124Z,100927.02
2018-10-07T07:37:40.775Z,100939.23
2018-10-07T07:40:10.644Z,100946.94
2018-10-07T07:42:40.004Z,100948.90
2018-10-07T07:45:10.144Z,100959.55
2018-10-07T07:47:39.631Z,100968.50
2018-10-07T07:50:09.703Z,100980.80
2018-10-07T07:52:39.269Z,100991.02
2018-10-07T07:55:09.282Z,100999.27
2018-10-07T07:57:39.086Z,101010.06
2018-10-07T08:00:08.611Z,101018.02
2018-10-07T08:02:38.079Z,101022.07
2018-10-07T08:05:07.646Z,101023.80
2018-10-07T08:07:37.297Z,101031.53
2018-10-07T08:10:07.643Z,101041.50
2018-10-07T08:12:37.932Z,101042.67
2018-10-07T08:15:08.199Z,101056.09
2018-10-07T08:17:38.107Z,101056.66
2018-10-07T08:20:08.171Z,101068.44
2018-10-07T08:22:37.599Z,101074.08
2018-10-07T08:25:07.801Z,101080.06
2018-10-07T08:27:37.823Z,101085.78
2018-10-07T08:30:09.091Z,101088.93
2018-10-07T08:32:39.027Z,101089.38
2018-10-07T08:35:08.488Z,101084.28
2018-10-07T08:37:37.957Z,101094.31
2018-10-07T08:40:07.400Z,101092.71
2018-10-07T08:42:37.098Z,101094.88
2018-10-07T08:45:07.179Z,101104.97
2018-10-07T08:47:36.451Z,101098.58
2018-10-07T08:50:05.873Z,101108.44
2018-10-07T08:52:35.662Z,101107.41
2018-10-07T08:55:05.275Z,101120.59
2018-10-07T08:57:34.949Z,101120.72
2018-10-07T09:00:04.527Z,101112.17
2018-10-07T09:02:33.972Z,101058.18
2018-10-07T09:05:03.833Z,101110.75
2018-10-07T09:07:34.126Z,101108.96
2018-10-07T09:10:03.752Z,101107.33
2018-10-07T09:12:33.876Z,101097.87
2018-10-07T09:15:03.373Z,101097.66
2018-10-07T09:17:33.187Z,101103.50
2018-10-07T09:20:03.210Z,101108.10
2018-10-07T09:22:33.267Z,101108.67
2018-10-07T09:25:02.779Z,101103.72
2018-10-07T09:27:32.651Z,101100.95
2018-10-07T09:30:02.548Z,101110.23
2018-10-07T09:32:32.565Z,101121.87
2018-10-07T09:35:02.593Z,101121.20
2018-10-07T09:37:31.974Z,101128.23
2018-10-07T09:40:01.488Z,101125.77
2018-10-07T09:42:31.199Z,101130.73
2018-10-07T09:45:01.140Z,101125.05
2018-10-07T09:47:30.902Z,101127.81
2018-10-07T09:50:01.118Z,101137.45
2018-10-07T09:52:31.083Z,101138.47
2018-10-07T09:55:00.723Z,101142.52
2018-10-07T09:57:30.311Z,101148.25
2018-10-07T09:59:59.811Z,101150.02
2018-10-07T10:02:30.034Z,101149.16
2018-10-07T10:04:59.302Z,101143.94
2018-10-07T10:07:29.250Z,101136.98
2018-10-07T10:09:58.666Z,101132.37
2018-10-07T10:12:27.931Z,101125.80
2018-10-07T10:14:57.159Z,101127.72
2018-10-07T10:17:27.150Z,101130.52
2018-10-07T10:20:03.607Z,101135.31
2018-10-07T10:22:39.079Z,101135.58
2018-10-07T10:25:21.653Z,101139.88
2018-10-07T10:27:59.039Z,101150.95
2018-10-07T10:31:08.363Z,101158.28
2018-10-07T10:33:43.163Z,101165.20
2018-10-07T10:36:31.119Z,101157.34
2018-10-07T10:39:06.583Z,101160.39
2018-10-07T10:41:44.038Z,101156.69
2018-10-07T10:44:22.215Z,101162.92
2018-10-07T10:46:55.387Z,101162.16
2018-10-07T10:51:39.377Z,101167.89
2018-10-07T10:54:13.098Z,101158.95
2018-10-07T10:56:48.695Z,101161.69
2018-10-07T10:59:39.073Z,101166.44
2018-10-07T11:02:15.398Z,101169.37
2018-10-07T11:04:53.413Z,101163.97
2018-10-07T11:07:25.306Z,101158.16
2018-10-07T11:10:08.578Z,101158.91
2018-10-07T11:12:44.132Z,101159.05
2018-10-07T11:15:24.989Z,101162.87
2018-10-07T11:18:35.639Z,101162.41
2018-10-07T11:21:15.028Z,101170.66
2018-10-07T11:24:04.323Z,101177.27
2018-10-07T11:28:51.705Z,101170.06
2018-10-07T11:31:28.585Z,101173.08
2018-10-07T11:34:08.950Z,101173.80
2018-10-07T11:38:56.959Z,101174.25
2018-10-07T11:41:29.265Z,101183.09
2018-10-07T11:46:07.238Z,101173.32
2018-10-07T11:48:47.855Z,101177.36
2018-10-07T11:53:26.581Z,101186.27
2018-10-07T11:55:55.856Z,101192.11
2018-10-07T11:58:25.099Z,101193.77
2018-10-07T12:00:54.319Z,101195.27
2018-10-07T12:03:23.555Z,101202.61
2018-10-07T12:05:53.111Z,101199.69
2018-10-07T12:08:22.586Z,101203.27
2018-10-07T12:10:51.949Z,101202.66
2018-10-07T12:13:21.847Z,101202.95
2018-10-07T12:15:51.611Z,101207.01
2018-10-07T12:18:21.450Z,101207.22
2018-10-07T12:20:50.685Z,101207.84
2018-10-07T12:23:19.906Z,101209.61
2018-10-07T12:25:49.188Z,101212.02
2018-10-07T12:28:18.627Z,101207.77
2018-10-07T12:30:47.903Z,101212.78
2018-10-07T12:33:17.109Z,101214.63
2018-10-07T12:35:46.350Z,101217.45
2018-10-07T12:38:15.647Z,101228.97
2018-10-07T12:40:45.449Z,101237.96
2018-10-07T12:43:14.662Z,101238.28
2018-10-07T12:45:43.915Z,101238.38
2018-10-07T12:48:13.174Z,101237.22
2018-10-07T12:50:42.429Z,101241.19
2018-10-07T12:53:11.729Z,101242.65
2018-10-07T12:55:41.078Z,101245.55
2018-10-07T12:58:10.427Z,101238.03
2018-10-07T13:00:39.656Z,101233.57
2018-10-07T13:03:09.498Z,101240.06
2018-10-07T13:05:38.735Z,101242.22
2018-10-07T13:08:08.070Z,101246.23
2018-10-07T13:10:37.298Z,101240.49
2018-10-07T13:13:06.541Z,101242.59
2018-10-07T13:15:36.610Z,101239.16
2018-10-07T13:18:05.899Z,101243.34
2018-10-07T13:20:35.235Z,101233.94
2018-10-07T13:23:04.518Z,101232.70
2018-10-07T13:25:33.807Z,101239.33
2018-10-07T13:28:03.122Z,101234.84
2018-10-07T13:30:32.401Z,101237.14
2018-10-07T13:33:01.639Z,101231.42
2018-10-07T13:35:30.893Z,101232.38
2018-10-07T13:38:00.167Z,101224.42
2018-10-07T13:40:29.429Z,101214.29
2018-10-07T13:42:58.950Z,101216.42
2018-10-07T13:45:28.191Z,101213.11
2018-10-07T13:47:58.523Z,101206.72
2018-10-07T13:50:27.760Z,101212.67
2018-10-07T13:52:57.270Z,101208.19
2018-10-07T13:55:26.979Z,101207.20
2018-10-07T13:57:56.237Z,101215.50
2018-10-07T14:00:25.543Z,101218.23
2018-10-07T14:02:54.814Z,101225.09
2018-10-07T14:05:24.112Z,101229.95
2018-10-07T14:07:54.053Z,101224.30
2018-10-07T14:10:23.424Z,101228.48
2018-10-07T14:12:52.635Z,101227.61
2018-10-07T14:15:21.903Z,101230.91
2018-10-07T14:17:51.775Z,101229.91
2018-10-07T14:22:49.013Z,101221.03
2018-10-07T14:25:18.325Z,101217.53
2018-10-07T14:27:47.614Z,101221.30
2018-10-07T14:30:17.043Z,101221.46
2018-10-07T14:32:46.861Z,101214.62
2018-10-07T14:35:16.095Z,101221.16
2018-10-07T14:37:45.432Z,101222.08
2018-10-07T14:40:14.703Z,101227.05
2018-10-07T14:42:43.950Z,101225.66
2018-10-07T14:45:13.164Z,101227.45
2018-10-07T14:47:42.523Z,101230.98
2018-10-07T14:50:11.814Z,101225.98
2018-10-07T14:52:41.100Z,101222.53
2018-10-07T14:55:10.422Z,101225.56
2018-10-07T14:57:39.627Z,101225.22
2018-10-07T15:00:08.932Z,101238.13
2018-10-07T15:02:38.208Z,101233.36
2018-10-07T15:05:07.494Z,101231.00
2018-10-07T15:07:36.759Z,101231.19
2018-10-07T15:10:06.918Z,101235.10
2018-10-07T15:12:36.239Z,101237.27
2018-10-07T15:15:05.992Z,101228.56
2018-10-07T15:17:35.289Z,101224.06
2018-10-07T15:20:04.818Z,101226.48
2018-10-07T15:22:34.096Z,101218.58
2018-10-07T15:25:03.418Z,101223.06
2018-10-07T15:27:32.852Z,101223.39
2018-10-07T15:30:02.118Z,101225.81
2018-10-07T15:32:31.402Z,101225.55
2018-10-07T15:35:00.712Z,101226.89
2018-10-07T15:37:30.039Z,101231.09
2018-10-07T15:39:59.348Z,101230.77
2018-10-07T15:42:28.908Z,101236.98
2018-10-07T15:44:58.434Z,101245.67
2018-10-07T15:47:27.775Z,101247.33
2018-10-07T15:49:57.060Z,101256.71
2018-10-07T15:52:26.538Z,101248.33
2018-10-07T15:54:56.558Z,101246.16
2018-10-07T15:57:25.796Z,101241.12
2018-10-07T15:59:55.036Z,101238.59
2018-10-07T16:02:24.240Z,101238.84
2018-10-07T16:04:54.079Z,101250.33
2018-10-07T16:07:23.350Z,101260.95
2018-10-07T16:09:52.679Z,101269.30
2018-10-07T16:12:21.831Z,101274.37
2018-10-07T16:14:51.099Z,101275.34
2018-10-07T16:17:20.323Z,101276.34
2018-10-07T16:19:49.563Z,101275.06
2018-10-07T16:22:18.862Z,101275.00
2018-10-07T16:24:48.190Z,101283.02
2018-10-07T16:27:17.441Z,101285.31
2018-10-07T16:29:46.668Z,101290.84
2018-10-07T16:32:16.000Z,101293.09
2018-10-07T16:34:45.173Z,101295.81
2018-10-07T16:37:14.424Z,101299.11
2018-10-07T16:39:43.743Z,101297.98
2018-10-07T16:42:13.811Z,101295.97
2018-10-07T16:44:43.140Z,101300.98
2018-10-07T16:47:13.502Z,101292.11
2018-10-07T16:49:42.794Z,101301.20
2018-10-07T16:52:12.390Z,101299.58
2018-10-07T16:54:41.611Z,101297.73
2018-10-07T16:57:10.994Z,101304.39
2018-10-07T16:59:40.354Z,101306.40
2018-10-07T17:02:09.588Z,101307.20
2018-10-07T17:04:38.817Z,101318.80
2018-10-07T17:07:08.112Z,101324.11
2018-10-07T17:09:37.888Z,101318.14
2018-10-07T17:12:07.440Z,101326.78
2018-10-07T17:14:36.708Z,101333.42
2018-10-07T17:17:06.259Z,101328.53
2018-10-07T17:19:35.573Z,101325.64
2018-10-07T17:22:05.488Z,101340.12
2018-10-07T17:24:35.455Z,101339.44
2018-10-07T17:27:04.699Z,101348.55
2018-10-07T17:29:33.965Z,101348.56
2018-10-07T17:32:03.195Z,101350.41
2018-10-07T17:34:32.737Z,101346.91
2018-10-07T17:37:03.487Z,101344.64
2018-10-07T17:39:32.967Z,101349.98
2018-10-07T17:42:02.502Z,101350.36
2018-10-07T17:44:32.443Z,101366.47
2018-10-07T17:47:02.772Z,101364.31
2018-10-07T17:49:32.628Z,101361.91
2018-10-07T17:52:02.166Z,101369.47
2018-10-07T17:54:31.654Z,101377.38
2018-10-07T17:57:00.923Z,101383.55
2018-10-07T17:59:30.515Z,101383.80
2018-10-07T18:02:00.218Z,101387.48
2018-10-07T18:04:30.274Z,101393.09
2018-10-07T18:06:59.787Z,101394.45
2018-10-07T18:09:29.840Z,101399.08
2018-10-07T18:12:00.234Z,101397.01
2018-10-07T18:14:29.714Z,101393.14
2018-10-07T18:16:59.475Z,101395.12
2018-10-07T18:19:29.146Z,101398.38
2018-10-07T18:21:58.767Z,101396.89
2018-10-07T18:24:28.203Z,101401.35
2018-10-07T18:26:57.659Z,101399.00
2018-10-07T18:29:26.911Z,101397.23
2018-10-07T18:31:56.162Z,101405.16
2018-10-07T18:34:25.438Z,101407.23
2018-10-07T18:36:54.696Z,101414.34
2018-10-07T18:39:24.018Z,101421.80
2018-10-07T18:41:53.253Z,101425.83
2018-10-07T18:44:22.766Z,101417.31
2018-10-07T18:46:52.043Z,101423.06
2018-10-07T18:49:21.447Z,101427.20
2018-10-07T18:51:50.701Z,101428.48
2018-10-07T18:54:20.002Z,101432.08
2018-10-07T18:56:49.255Z,101430.67
2018-10-07T18:59:18.494Z,101448.56
2018-10-07T19:01:47.729Z,101451.45
2018-10-07T19:04:17.067Z,101447.77
2018-10-07T19:06:46.350Z,101448.52
2018-10-07T19:09:15.666Z,101444.64
2018-10-07T19:11:44.923Z,101435.20
2018-10-07T19:14:14.321Z,101439.05
2018-10-07T19:16:44.456Z,101445.31
2018-10-07T19:19:13.682Z,101452.45
2018-10-07T19:21:42.903Z,101453.66
2018-10-07T19:24:12.133Z,101458.41
2018-10-07T19:26:41.515Z,101457.80
2018-10-07T19:29:10.787Z,101450.69
2018-10-07T19:31:40.045Z,101455.75
2018-10-07T19:34:09.426Z,101462.99
2018-10-07T19:36:38.716Z,101469.13
2018-10-07T19:39:09.391Z,101478.06
2018-10-07T19:41:38.907Z,101480.81
2018-10-07T19:44:08.144Z,101479.02
2018-10-07T19:46:37.775Z,101486.49
2018-10-07T19:49:07.135Z,101485.17
2018-10-07T19:51:36.385Z,101490.22
2018-10-07T19:54:05.633Z,101487.70
2018-10-07T19:56:35.045Z,101493.84
2018-10-07T19:59:04.348Z,101491.55
2018-10-07T20:01:33.597Z,101493.95
2018-10-07T20:04:03.593Z,101485.50
2018-10-07T20:06:33.236Z,101490.34
2018-10-07T20:09:02.561Z,101485.64
2018-10-07T20:11:31.757Z,101491.28
2018-10-07T20:14:01.035Z,101488.84
2018-10-07T20:16:30.672Z,101492.74
2018-10-07T20:19:00.651Z,101491.78
2018-10-07T20:21:30.267Z,101485.83
2018-10-07T20:23:59.525Z,101485.69
2018-10-07T20:26:29.064Z,101479.56
2018-10-07T20:28:58.671Z,101482.42
2018-10-07T20:31:28.319Z,101483.84
2018-10-07T20:33:57.833Z,101486.84
2018-10-07T20:36:27.097Z,101484.72
2018-10-07T20:38:56.991Z,101484.25
2018-10-07T20:41:26.437Z,101488.58
2018-10-07T20:43:55.909Z,101488.12
2018-10-07T20:46:25.115Z,101482.07
2018-10-07T20:48:54.366Z,101481.70
2018-10-07T20:51:23.675Z,101479.92
2018-10-07T20:53:53.131Z,101474.33
2018-10-07T20:56:22.439Z,101486.53
2018-10-07T20:58:52.232Z,101482.98
2018-10-07T21:01:21.540Z,101490.58
2018-10-07T21:03:50.808Z,101486.06
2018-10-07T21:06:20.248Z,101485.61
2018-10-07T21:08:49.563Z,101492.44
2018-10-07T21:11:18.982Z,101490.23
2018-10-07T21:13:48.228Z,101494.29
2018-10-07T21:16:17.596Z,101495.62
2018-10-07T21:18:46.921Z,101495.34
2018-10-07T21:21:16.159Z,101486.58
2018-10-07T21:23:45.438Z,101490.68
2018-10-07T21:26:14.695Z,101498.80
2018-10-07T21:28:44.001Z,101497.84
2018-10-07T21:31:13.413Z,101488.73
2018-10-07T21:33:42.667Z,101488.98
2018-10-07T21:36:12.591Z,101484.03
2018-10-07T21:38:41.858Z,101486.26
2018-10-07T21:41:11.212Z,101479.55
2018-10-07T21:43:40.486Z,101483.88
2018-10-07T21:46:09.772Z,101485.20
2018-10-07T21:48:39.019Z,101488.02
2018-10-07T21:51:08.363Z,101488.91
2018-10-07T21:53:37.699Z,101486.06
2018-10-07T21:56:07.293Z,101482.45
2018-10-07T21:58:36.868Z,101486.16
2018-10-07T22:01:06.103Z,101486.66
2018-10-07T22:03:35.711Z,101489.64
2018-10-07T22:06:05.111Z,101476.70
2018-10-07T22:08:34.555Z,101475.33
2018-10-07T22:11:04.443Z,101477.70
2018-10-07T22:13:33.760Z,101470.80
2018-10-07T22:16:03.020Z,101473.23
2018-10-07T22:18:32.274Z,101476.34
2018-10-07T22:21:01.708Z,101484.52
2018-10-07T22:23:31.408Z,101490.83
2018-10-07T22:26:01.139Z,101497.11
2018-10-07T22:28:30.893Z,101502.43
2018-10-07T22:31:01.839Z,101502.89
2018-10-07T22:33:31.492Z,101507.02
2018-10-07T22:36:01.894Z,101510.80
2018-10-07T22:38:31.787Z,101505.41
2018-10-07T22:41:01.056Z,101508.05
2018-10-07T22:43:30.543Z,101496.33
2018-10-07T22:46:00.016Z,101503.64
2018-10-07T22:48:30.003Z,101497.08
2018-10-07T22:50:59.895Z,101494.70
2018-10-07T22:53:30.519Z,101492.21
2018-10-07T22:56:01.418Z,101498.72
2018-10-07T22:58:31.571Z,101500.12
2018-10-07T23:01:01.632Z,101493.28
2018-10-07T23:03:31.918Z,101498.30
2018-10-07T23:06:02.153Z,101497.16
2018-10-07T23:08:31.532Z,101503.80
2018-10-07T23:11:01.027Z,101504.95
2018-10-07T23:13:30.970Z,101509.10
2018-10-07T23:16:01.043Z,101506.14
2018-10-07T23:18:31.145Z,101504.28
2018-10-07T23:21:01.696Z,101507.48
2018-10-07T23:23:31.192Z,101501.97
2018-10-07T23:26:00.450Z,101504.70
2018-10-07T23:28:30.140Z,101510.03
2018-10-07T23:30:59.502Z,101513.26
2018-10-07T23:33:29.266Z,101508.88
2018-10-07T23:35:58.732Z,101512.45
2018-10-07T23:38:28.064Z,101510.80
2018-10-07T23:40:59.702Z,101505.06
2018-10-07T23:43:29.097Z,101507.52
2018-10-07T23:45:58.578Z,101500.23
2018-10-07T23:48:28.106Z,101500.88
2018-10-07T23:50:58.104Z,101501.92
2018-10-07T23:53:27.345Z,101505.52
2018-10-07T23:55:57.426Z,101510.30
2018-10-07T23:58:27.456Z,101512.30
